Time;durP1;ratioP1;P1;durP2;ratioP2;P2;SDS_P1;SDS_P2;PMS_P1;PMS_P2;Temp;Humidity;BMP_temperature;BMP_pressure;BME280_temperature;BME280_humidity;BME280_pressure;Samples;Min_cycle;Max_cycle;Signal;HPM_P1;HPM_P2
2023/04/21 00:08:52;;;;;;;;;;;;;;;9.68;79.88;102011.53;20807756;28;19933;-56
2023/04/21 00:19:14;;;;;;;;;;;;;;;9.56;81.14;102003.88;20793438;28;19929;-56
2023/04/21 00:29:35;;;;;;;;;;;;;;;9.55;80.25;101997.00;20793604;28;19924;-57
2023/04/21 00:39:57;;;;;;;;;;;;;;;9.59;80.98;101986.63;20802327;28;19933;-55
2023/04/21 00:50:19;;;;;;;;;;;;;;;9.64;80.41;101979.69;20792902;28;20424;-56
2023/04/21 01:00:41;;;;;;;;;;;;;;;9.66;80.71;101966.75;20784531;28;19929;-54
2023/04/21 01:11:10;;;;;;;;;;;;;;;9.66;80.79;101957.28;20795232;28;19998;-54
2023/04/21 01:21:39;;;;;;;;;;;;;;;9.69;80.16;101951.22;20808238;28;19952;-56
2023/04/21 01:32:05;;;;;;;;;;;;;;;9.66;80.31;101956.44;20803509;28;20035;-57
2023/04/21 01:42:27;;;;;;;;;;;;;;;9.64;79.47;101942.66;20804963;28;19928;-55
2023/04/21 01:52:49;;;;;;;;;;;;;;;9.59;80.02;101939.25;20809588;28;19925;-56
2023/04/21 02:03:10;;;;;;;;;;;;;;;9.51;80.27;101938.44;20817460;28;19925;-54
2023/04/21 02:13:32;;;;;;;;;;;;;;;9.49;79.70;101928.13;20811358;28;19932;-54
2023/04/21 02:23:53;;;;;;;;;;;;;;;9.42;79.06;101925.59;20802599;28;19933;-54
2023/04/21 02:34:15;;;;;;;;;;;;;;;9.37;80.08;101923.06;20790515;28;20138;-54
2023/04/21 02:44:37;;;;;;;;;;;;;;;9.33;79.96;101929.13;20746900;28;20431;-55
2023/04/21 02:54:58;;;;;;;;;;;;;;;9.32;83.11;101918.81;20747681;28;19933;-56
2023/04/21 03:05:20;;;;;;;;;;;;;;;9.30;79.85;101923.13;20738811;28;20330;-56
2023/04/21 03:15:41;;;;;;;;;;;;;;;9.28;80.39;101924.88;20744789;28;19933;-54
2023/04/21 03:26:09;;;;;;;;;;;;;;;9.25;79.86;101924.91;20745657;28;20135;-56
2023/04/21 03:36:30;;;;;;;;;;;;;;;9.22;80.76;101922.31;20746969;28;20015;-54
2023/04/21 03:46:53;;;;;;;;;;;;;;;9.21;80.49;101936.09;20742382;28;20038;-56
2023/04/21 03:57:15;;;;;;;;;;;;;;;9.20;81.25;101934.38;20742908;28;20018;-55
2023/04/21 04:07:36;;;;;;;;;;;;;;;9.17;80.76;101934.41;20729038;28;20290;-56
2023/04/21 04:17:58;;;;;;;;;;;;;;;9.16;80.08;101941.28;20741900;28;20381;-55
2023/04/21 04:28:21;;;;;;;;;;;;;;;9.14;80.60;101936.13;20741660;28;19934;-54
2023/04/21 04:38:44;;;;;;;;;;;;;;;9.16;80.10;101937.88;20732674;28;19933;-56
2023/04/21 04:49:06;;;;;;;;;;;;;;;9.15;81.16;101942.16;20738446;28;20003;-56
2023/04/21 04:59:27;;;;;;;;;;;;;;;9.14;81.50;101941.31;20740661;28;19933;-56
2023/04/21 05:09:50;;;;;;;;;;;;;;;9.18;81.25;101941.28;20750939;28;19932;-54
2023/04/21 05:20:12;;;;;;;;;;;;;;;9.23;79.77;101942.13;20757095;28;20052;-56
2023/04/21 05:30:33;;;;;;;;;;;;;;;9.25;79.90;101935.22;20739206;28;19937;-54
2023/04/21 05:40:55;;;;;;;;;;;;;;;9.32;79.85;101944.63;20748669;28;20016;-56
2023/04/21 05:51:16;;;;;;;;;;;;;;;9.39;80.77;101946.31;20740568;28;19940;-55
2023/04/21 06:01:38;;;;;;;;;;;;;;;9.50;80.13;101929.00;20747624;28;20269;-56
2023/04/21 06:11:59;;;;;;;;;;;;;;;9.66;79.91;101930.59;20739510;28;20002;-56
2023/04/21 06:22:24;;;;;;;;;;;;;;;9.86;80.08;101919.19;20751882;28;19972;-56
2023/04/21 06:32:47;;;;;;;;;;;;;;;10.14;79.16;101912.88;20751275;28;19925;-57
2023/04/21 06:43:08;;;;;;;;;;;;;;;10.54;78.04;101915.91;20748996;28;19940;-56
2023/04/21 06:53:30;;;;;;;;;;;;;;;10.90;78.76;101894.69;20738714;28;20466;-54
2023/04/21 07:03:51;;;;;;;;;;;;;;;11.26;74.99;101884.66;20745160;28;19953;-56
2023/04/21 07:14:14;;;;;;;;;;;;;;;11.54;79.58;101866.03;20744015;28;19940;-56
2023/04/21 07:24:36;;;;;;;;;;;;;;;11.85;76.21;101858.59;20744696;28;20063;-57
2023/04/21 07:34:57;;;;;;;;;;;;;;;12.13;74.92;101854.59;20720452;28;19932;-57
2023/04/21 07:45:19;;;;;;;;;;;;;;;12.37;74.89;101851.50;20729970;28;20860;-57
2023/04/21 07:55:40;;;;;;;;;;;;;;;12.65;73.44;101849.16;20740763;28;19980;-55
2023/04/21 08:06:02;;;;;;;;;;;;;;;12.87;72.26;101853.81;20741091;28;20403;-56
2023/04/21 08:16:24;;;;;;;;;;;;;;;13.13;72.02;101838.50;20801305;28;20020;-57
2023/04/21 08:26:45;;;;;;;;;;;;;;;13.38;72.70;101827.50;20793814;28;19925;-56
2023/04/21 08:37:07;;;;;;;;;;;;;;;13.74;71.37;101821.34;20794629;28;19925;-56
2023/04/21 08:47:28;;;;;;;;;;;;;;;14.01;70.49;101830.97;20791201;28;19944;-56
2023/04/21 08:57:50;;;;;;;;;;;;;;;14.24;72.82;101822.53;20791288;28;19952;-57
2023/04/21 09:08:12;;;;;;;;;;;;;;;14.59;70.23;101815.41;20775309;28;19929;-55
2023/04/21 09:18:38;;;;;;;;;;;;;;;14.85;69.12;101804.19;20782040;28;20418;-56
2023/04/21 09:29:05;;;;;;;;;;;;;;;15.18;68.35;101808.25;20794988;28;19925;-56
2023/04/21 09:39:30;;;;;;;;;;;;;;;15.42;67.47;101798.81;20794292;28;19925;-56
2023/04/21 09:50:11;;;;;;;;;;;;;;;15.70;66.06;101783.88;20804330;28;19931;-54
2023/04/21 10:00:38;;;;;;;;;;;;;;;16.03;66.04;101760.03;20800835;28;19936;-68
2023/04/21 10:10:59;;;;;;;;;;;;;;;16.31;65.93;101754.59;20807735;28;20347;-72
2023/04/21 10:21:23;;;;;;;;;;;;;;;16.65;65.22;101734.09;20813388;28;19955;-74
2023/04/21 10:31:51;;;;;;;;;;;;;;;17.00;64.52;101728.25;20790373;28;20052;-56
2023/04/21 10:42:16;;;;;;;;;;;;;;;17.22;63.95;101704.66;20801185;28;20006;-56
2023/04/21 10:52:37;;;;;;;;;;;;;;;17.55;61.75;101691.88;20807297;28;19925;-56
2023/04/21 11:03:01;;;;;;;;;;;;;;;17.88;63.01;101682.47;20791612;28;19933;-60
2023/04/21 11:13:24;;;;;;;;;;;;;;;18.35;61.11;101665.34;20808257;28;19936;-59
2023/04/21 11:23:48;;;;;;;;;;;;;;;18.75;60.65;101652.00;20796781;28;19925;-57
2023/04/21 11:34:10;;;;;;;;;;;;;;;19.11;57.80;101632.66;20783191;28;19929;-60
2023/04/21 11:44:39;;;;;;;;;;;;;;;19.53;55.59;101606.78;20798733;28;20059;-57
2023/04/21 11:55:02;;;;;;;;;;;;;;;19.78;57.65;101599.25;20796145;28;19979;-59
2023/04/21 12:05:24;;;;;;;;;;;;;;;20.20;54.00;101591.59;20780210;28;19929;-58
2023/04/21 12:15:45;;;;;;;;;;;;;;;19.48;56.88;101586.03;20804690;28;20341;-58
2023/04/21 12:26:07;;;;;;;;;;;;;;;19.61;56.53;101554.69;20795060;28;19925;-58
2023/04/21 12:36:29;;;;;;;;;;;;;;;19.83;56.09;101557.81;20799091;28;19929;-59
2023/04/21 12:46:51;;;;;;;;;;;;;;;20.58;54.09;101536.75;20786926;28;20257;-59
2023/04/21 12:57:12;;;;;;;;;;;;;;;20.89;51.72;101516.34;20795694;28;19929;-58
2023/04/21 13:07:34;;;;;;;;;;;;;;;21.08;49.92;101502.94;20791180;28;19929;-58
2023/04/21 13:17:55;;;;;;;;;;;;;;;21.53;55.06;101491.28;20784834;28;19929;-55
2023/04/21 13:28:18;;;;;;;;;;;;;;;21.86;57.97;101470.66;20805349;28;21111;-53
2023/04/21 13:38:39;;;;;;;;;;;;;;;22.06;54.42;101464.88;20809281;28;19929;-55
2023/04/21 13:49:01;;;;;;;;;;;;;;;22.20;53.70;101459.50;20817242;28;19925;-60
2023/04/21 13:59:22;;;;;;;;;;;;;;;22.00;54.14;101431.03;20805747;28;19925;-59
2023/04/21 14:09:44;;;;;;;;;;;;;;;21.89;50.78;101428.25;20805262;28;19932;-59
2023/04/21 14:20:08;;;;;;;;;;;;;;;22.27;54.91;101381.66;20797871;28;20361;-58
2023/04/21 14:30:29;;;;;;;;;;;;;;;22.29;53.12;101387.66;20809478;28;20012;-57
2023/04/21 14:40:54;;;;;;;;;;;;;;;22.26;53.24;101382.63;20802356;28;19971;-60
2023/04/21 14:51:15;;;;;;;;;;;;;;;22.23;49.81;101380.19;20801485;28;19971;-60
2023/04/21 15:01:37;;;;;;;;;;;;;;;22.07;52.48;101353.19;20801269;28;19926;-60
2023/04/21 15:11:59;;;;;;;;;;;;;;;22.15;53.27;101350.88;20794364;28;19929;-60
2023/04/21 15:22:20;;;;;;;;;;;;;;;22.23;49.77;101331.88;20801019;28;19925;-59
2023/04/21 15:32:42;;;;;;;;;;;;;;;22.25;53.33;101325.53;20798523;28;19929;-60
2023/04/21 15:43:03;;;;;;;;;;;;;;;22.22;50.88;101312.56;20795251;28;19932;-59
2023/04/21 15:53:25;;;;;;;;;;;;;;;22.34;47.88;101298.50;20798705;28;19979;-59
2023/04/21 16:03:47;;;;;;;;;;;;;;;22.30;49.85;101286.50;20785062;28;19931;-60
2023/04/21 16:14:09;;;;;;;;;;;;;;;22.18;51.93;101276.00;20798149;28;19956;-57
2023/04/21 16:24:31;;;;;;;;;;;;;;;22.04;53.65;101268.19;20797741;28;20035;-59
2023/04/21 16:34:52;;;;;;;;;;;;;;;21.95;50.01;101254.72;20798210;28;19926;-55
2023/04/21 16:45:14;;;;;;;;;;;;;;;21.88;51.44;101248.19;20789262;28;20304;-55
2023/04/21 16:55:35;;;;;;;;;;;;;;;21.78;51.96;101241.00;20789548;28;20444;-53
2023/04/21 17:05:57;;;;;;;;;;;;;;;21.54;52.53;101247.97;20792404;28;20354;-53
2023/04/21 17:16:18;;;;;;;;;;;;;;;21.31;50.37;101240.78;20791067;28;20233;-54
2023/04/21 17:26:40;;;;;;;;;;;;;;;21.07;51.33;101226.66;20794047;28;19930;-55
2023/04/21 17:37:03;;;;;;;;;;;;;;;20.84;52.24;101226.34;20814005;28;19979;-56
2023/04/21 17:47:24;;;;;;;;;;;;;;;20.54;52.60;101223.13;20792634;28;20422;-57
2023/04/21 17:57:46;;;;;;;;;;;;;;;20.20;55.25;101228.84;20793463;28;19980;-58
2023/04/21 18:08:07;;;;;;;;;;;;;;;19.91;54.91;101227.16;20784606;28;19933;-57
2023/04/21 18:18:29;;;;;;;;;;;;;;;19.61;56.13;101226.44;20800900;28;19979;-59
2023/04/21 18:28:50;;;;;;;;;;;;;;;19.26;52.66;101232.94;20805439;28;19929;-57
2023/04/21 18:39:12;;;;;;;;;;;;;;;18.99;54.04;101232.75;20806334;28;19925;-57
2023/04/21 18:49:33;;;;;;;;;;;;;;;18.70;56.53;101233.59;20800195;28;19942;-57
2023/04/21 18:59:54;;;;;;;;;;;;;;;18.47;56.22;101240.16;20805067;28;19984;-58
2023/04/21 19:10:16;;;;;;;;;;;;;;;18.20;56.73;101239.03;20780558;28;19936;-57
2023/04/21 19:20:37;;;;;;;;;;;;;;;17.96;54.98;101235.94;20797858;28;20369;-57
2023/04/21 19:30:59;;;;;;;;;;;;;;;17.79;57.52;101238.63;20790681;28;19924;-57
2023/04/21 19:41:20;;;;;;;;;;;;;;;17.65;56.85;101248.16;20791135;28;19929;-57
2023/04/21 19:51:42;;;;;;;;;;;;;;;17.51;56.95;101258.47;20788062;28;19933;-58
2023/04/21 20:02:03;;;;;;;;;;;;;;;17.27;55.49;101244.84;20775751;28;19965;-59
2023/04/21 20:12:25;;;;;;;;;;;;;;;17.15;57.81;101247.22;20791122;28;20343;-59
2023/04/21 20:22:47;;;;;;;;;;;;;;;16.96;58.07;101235.09;20801136;28;20363;-58
2023/04/21 20:33:09;;;;;;;;;;;;;;;16.86;56.74;101233.88;20787190;28;19925;-59
2023/04/21 20:43:31;;;;;;;;;;;;;;;16.71;57.81;101239.84;20797613;28;19972;-57
2023/04/21 20:53:53;;;;;;;;;;;;;;;16.57;57.87;101226.56;20771510;28;20307;-59
2023/04/21 21:04:15;;;;;;;;;;;;;;;16.46;57.67;101228.84;20791639;28;20067;-59
2023/04/21 21:14:36;;;;;;;;;;;;;;;16.36;58.28;101224.09;20797739;28;19971;-59
2023/04/21 21:24:58;;;;;;;;;;;;;;;16.13;53.97;101227.81;20792336;28;20431;-58
2023/04/21 21:35:19;;;;;;;;;;;;;;;16.07;57.53;101222.88;20781166;28;19925;-59
2023/04/21 21:45:41;;;;;;;;;;;;;;;15.94;58.70;101219.13;20805401;28;19926;-59
2023/04/21 21:56:03;;;;;;;;;;;;;;;15.84;58.71;101212.66;20813930;28;19964;-57
2023/04/21 22:06:25;;;;;;;;;;;;;;;15.74;55.91;101206.13;20815748;28;19929;-57
2023/04/21 22:16:47;;;;;;;;;;;;;;;15.63;58.64;101211.00;20817332;28;19971;-57
2023/04/21 22:27:08;;;;;;;;;;;;;;;15.48;59.25;101206.44;20810484;28;19979;-59
2023/04/21 22:37:30;;;;;;;;;;;;;;;15.40;59.09;101205.91;20809019;28;19933;-58
2023/04/21 22:47:51;;;;;;;;;;;;;;;15.28;59.62;101196.00;20807640;28;19933;-57
2023/04/21 22:58:13;;;;;;;;;;;;;;;15.06;56.67;101196.94;20816144;28;20272;-59
2023/04/21 23:08:36;;;;;;;;;;;;;;;15.01;59.77;101187.63;20806022;28;19933;-58
2023/04/21 23:18:57;;;;;;;;;;;;;;;14.82;60.67;101182.34;20811885;28;19925;-58
2023/04/21 23:29:18;;;;;;;;;;;;;;;14.75;60.52;101170.47;20808440;28;20385;-58
2023/04/21 23:39:40;;;;;;;;;;;;;;;14.68;59.99;101157.75;20795825;28;19929;-57
2023/04/21 23:50:01;;;;;;;;;;;;;;;14.62;60.44;101169.28;20800975;28;19929;-56
